sensor_id;sensor_type;location;lat;lon;timestamp;P1;durP1;ratioP1;P2;durP2;ratioP2
36189;SDS011;22232;50.914;13.858;2022-08-04T00:05:18;3.75;;;2.70;;
36189;SDS011;22232;50.914;13.858;2022-08-04T00:10:32;2.60;;;2.38;;
36189;SDS011;22232;50.914;13.858;2022-08-04T00:13:01;5.22;;;2.30;;
36189;SDS011;22232;50.914;13.858;2022-08-04T00:15:31;2.53;;;2.30;;
36189;SDS011;22232;50.914;13.858;2022-08-04T00:18:04;2.92;;;2.50;;
36189;SDS011;22232;50.914;13.858;2022-08-04T00:20:38;3.10;;;2.83;;
36189;SDS011;22232;50.914;13.858;2022-08-04T00:23:08;2.70;;;2.50;;
36189;SDS011;22232;50.914;13.858;2022-08-04T00:25:39;3.28;;;2.58;;
36189;SDS011;22232;50.914;13.858;2022-08-04T00:28:07;2.63;;;2.15;;
36189;SDS011;22232;50.914;13.858;2022-08-04T00:30:35;2.72;;;2.50;;
36189;SDS011;22232;50.914;13.858;2022-08-04T00:33:03;5.20;;;2.38;;
36189;SDS011;22232;50.914;13.858;2022-08-04T00:35:31;3.58;;;2.38;;
36189;SDS011;22232;50.914;13.858;2022-08-04T00:37:59;3.72;;;2.60;;
36189;SDS011;22232;50.914;13.858;2022-08-04T00:40:35;2.60;;;2.20;;
36189;SDS011;22232;50.914;13.858;2022-08-04T00:43:30;5.15;;;2.85;;
36189;SDS011;22232;50.914;13.858;2022-08-04T01:00:14;2.80;;;2.50;;
36189;SDS011;22232;50.914;13.858;2022-08-04T01:14:28;4.45;;;2.70;;
36189;SDS011;22232;50.914;13.858;2022-08-04T01:17:06;3.72;;;2.85;;
36189;SDS011;22232;50.914;13.858;2022-08-04T01:19:57;2.20;;;2.10;;
36189;SDS011;22232;50.914;13.858;2022-08-04T01:22:36;2.38;;;2.17;;
36189;SDS011;22232;50.914;13.858;2022-08-04T01:29:04;4.32;;;2.55;;
36189;SDS011;22232;50.914;13.858;2022-08-04T01:34:10;4.80;;;2.40;;
36189;SDS011;22232;50.914;13.858;2022-08-04T01:36:41;3.65;;;2.50;;
36189;SDS011;22232;50.914;13.858;2022-08-04T01:39:16;2.67;;;2.47;;
36189;SDS011;22232;50.914;13.858;2022-08-04T01:42:05;3.47;;;2.63;;
36189;SDS011;22232;50.914;13.858;2022-08-04T01:44:36;3.78;;;2.60;;
36189;SDS011;22232;50.914;13.858;2022-08-04T01:47:06;3.10;;;2.33;;
36189;SDS011;22232;50.914;13.858;2022-08-04T01:49:35;3.58;;;2.55;;
36189;SDS011;22232;50.914;13.858;2022-08-04T01:52:07;3.97;;;2.60;;
36189;SDS011;22232;50.914;13.858;2022-08-04T01:54:37;4.18;;;2.35;;
36189;SDS011;22232;50.914;13.858;2022-08-04T01:57:08;3.45;;;3.15;;
36189;SDS011;22232;50.914;13.858;2022-08-04T01:59:57;3.92;;;2.22;;
36189;SDS011;22232;50.914;13.858;2022-08-04T02:02:29;2.55;;;2.35;;
36189;SDS011;22232;50.914;13.858;2022-08-04T02:04:57;3.72;;;2.67;;
36189;SDS011;22232;50.914;13.858;2022-08-04T02:13:26;3.25;;;2.42;;
36189;SDS011;22232;50.914;13.858;2022-08-04T02:16:24;3.00;;;2.65;;
36189;SDS011;22232;50.914;13.858;2022-08-04T02:19:43;3.45;;;2.63;;
36189;SDS011;22232;50.914;13.858;2022-08-04T02:22:16;4.45;;;2.60;;
36189;SDS011;22232;50.914;13.858;2022-08-04T02:24:45;4.05;;;2.50;;
36189;SDS011;22232;50.914;13.858;2022-08-04T02:27:15;4.00;;;2.67;;
36189;SDS011;22232;50.914;13.858;2022-08-04T02:30:14;3.65;;;2.40;;
36189;SDS011;22232;50.914;13.858;2022-08-04T02:32:44;2.90;;;2.70;;
36189;SDS011;22232;50.914;13.858;2022-08-04T02:35:15;4.63;;;2.58;;
36189;SDS011;22232;50.914;13.858;2022-08-04T02:40:52;4.22;;;2.50;;
36189;SDS011;22232;50.914;13.858;2022-08-04T02:43:27;2.88;;;2.35;;
36189;SDS011;22232;50.914;13.858;2022-08-04T02:46:16;4.55;;;2.30;;
36189;SDS011;22232;50.914;13.858;2022-08-04T02:48:46;3.05;;;2.35;;
36189;SDS011;22232;50.914;13.858;2022-08-04T02:51:16;4.75;;;2.70;;
36189;SDS011;22232;50.914;13.858;2022-08-04T02:53:46;2.28;;;2.08;;
36189;SDS011;22232;50.914;13.858;2022-08-04T02:56:18;2.75;;;2.40;;
36189;SDS011;22232;50.914;13.858;2022-08-04T02:58:52;3.42;;;2.35;;
36189;SDS011;22232;50.914;13.858;2022-08-04T03:01:24;2.67;;;2.45;;
36189;SDS011;22232;50.914;13.858;2022-08-04T03:04:08;2.45;;;2.25;;
36189;SDS011;22232;50.914;13.858;2022-08-04T03:15:34;5.95;;;2.75;;
36189;SDS011;22232;50.914;13.858;2022-08-04T03:35:46;2.85;;;2.53;;
36189;SDS011;22232;50.914;13.858;2022-08-04T04:04:15;6.57;;;3.25;;
36189;SDS011;22232;50.914;13.858;2022-08-04T04:18:29;3.88;;;2.67;;
36189;SDS011;22232;50.914;13.858;2022-08-04T04:26:56;3.30;;;2.55;;
36189;SDS011;22232;50.914;13.858;2022-08-04T04:29:28;4.10;;;2.75;;
36189;SDS011;22232;50.914;13.858;2022-08-04T04:37:56;3.00;;;2.70;;
36189;SDS011;22232;50.914;13.858;2022-08-04T04:49:33;7.78;;;3.10;;
36189;SDS011;22232;50.914;13.858;2022-08-04T04:52:17;4.45;;;3.10;;
36189;SDS011;22232;50.914;13.858;2022-08-04T04:57:27;6.25;;;2.92;;
36189;SDS011;22232;50.914;13.858;2022-08-04T05:00:17;7.22;;;3.40;;
36189;SDS011;22232;50.914;13.858;2022-08-04T05:14:05;4.78;;;3.58;;
36189;SDS011;22232;50.914;13.858;2022-08-04T05:19:41;5.55;;;2.72;;
36189;SDS011;22232;50.914;13.858;2022-08-04T05:22:39;8.80;;;3.00;;
36189;SDS011;22232;50.914;13.858;2022-08-04T05:27:49;3.70;;;3.00;;
36189;SDS011;22232;50.914;13.858;2022-08-04T05:30:23;5.03;;;2.88;;
36189;SDS011;22232;50.914;13.858;2022-08-04T05:32:57;3.75;;;2.70;;
36189;SDS011;22232;50.914;13.858;2022-08-04T05:35:30;3.38;;;2.80;;
36189;SDS011;22232;50.914;13.858;2022-08-04T05:38:21;5.05;;;3.13;;
36189;SDS011;22232;50.914;13.858;2022-08-04T05:40:52;4.60;;;3.00;;
36189;SDS011;22232;50.914;13.858;2022-08-04T05:43:21;5.80;;;3.03;;
36189;SDS011;22232;50.914;13.858;2022-08-04T05:45:51;3.22;;;2.92;;
36189;SDS011;22232;50.914;13.858;2022-08-04T05:48:19;5.50;;;2.83;;
36189;SDS011;22232;50.914;13.858;2022-08-04T05:50:47;3.78;;;3.00;;
36189;SDS011;22232;50.914;13.858;2022-08-04T05:53:15;6.55;;;3.42;;
36189;SDS011;22232;50.914;13.858;2022-08-04T05:55:45;3.58;;;2.75;;
36189;SDS011;22232;50.914;13.858;2022-08-04T05:58:27;6.63;;;3.15;;
36189;SDS011;22232;50.914;13.858;2022-08-04T06:01:00;7.75;;;3.40;;
36189;SDS011;22232;50.914;13.858;2022-08-04T06:03:28;6.63;;;3.28;;
36189;SDS011;22232;50.914;13.858;2022-08-04T06:05:57;4.28;;;3.47;;
36189;SDS011;22232;50.914;13.858;2022-08-04T06:08:28;4.80;;;3.35;;
36189;SDS011;22232;50.914;13.858;2022-08-04T06:10:58;7.20;;;3.30;;
36189;SDS011;22232;50.914;13.858;2022-08-04T06:13:33;5.45;;;3.15;;
36189;SDS011;22232;50.914;13.858;2022-08-04T06:16:20;8.95;;;3.22;;
36189;SDS011;22232;50.914;13.858;2022-08-04T06:18:58;4.85;;;3.20;;
36189;SDS011;22232;50.914;13.858;2022-08-04T06:21:50;6.87;;;3.40;;
36189;SDS011;22232;50.914;13.858;2022-08-04T06:24:21;4.85;;;2.92;;
36189;SDS011;22232;50.914;13.858;2022-08-04T06:26:52;4.97;;;3.13;;
36189;SDS011;22232;50.914;13.858;2022-08-04T06:29:21;5.13;;;3.28;;
36189;SDS011;22232;50.914;13.858;2022-08-04T06:31:57;8.32;;;2.55;;
36189;SDS011;22232;50.914;13.858;2022-08-04T06:34:55;3.53;;;2.70;;
36189;SDS011;22232;50.914;13.858;2022-08-04T06:37:25;5.22;;;3.60;;
36189;SDS011;22232;50.914;13.858;2022-08-04T06:40:14;7.45;;;3.30;;
36189;SDS011;22232;50.914;13.858;2022-08-04T06:42:59;5.03;;;3.05;;
36189;SDS011;22232;50.914;13.858;2022-08-04T06:45:30;4.97;;;3.25;;
36189;SDS011;22232;50.914;13.858;2022-08-04T06:48:01;4.22;;;3.15;;
36189;SDS011;22232;50.914;13.858;2022-08-04T06:50:31;6.22;;;3.13;;
36189;SDS011;22232;50.914;13.858;2022-08-04T06:53:21;5.97;;;3.03;;
36189;SDS011;22232;50.914;13.858;2022-08-04T06:55:50;6.80;;;3.22;;
36189;SDS011;22232;50.914;13.858;2022-08-04T06:58:19;8.10;;;3.10;;
36189;SDS011;22232;50.914;13.858;2022-08-04T07:00:49;5.10;;;2.90;;
36189;SDS011;22232;50.914;13.858;2022-08-04T07:03:18;9.10;;;3.45;;
36189;SDS011;22232;50.914;13.858;2022-08-04T07:05:48;4.45;;;3.13;;
36189;SDS011;22232;50.914;13.858;2022-08-04T07:08:17;6.50;;;3.30;;
36189;SDS011;22232;50.914;13.858;2022-08-04T07:10:46;8.32;;;3.72;;
36189;SDS011;22232;50.914;13.858;2022-08-04T07:13:14;6.20;;;3.45;;
36189;SDS011;22232;50.914;13.858;2022-08-04T07:15:44;6.05;;;3.03;;
36189;SDS011;22232;50.914;13.858;2022-08-04T07:18:13;5.93;;;3.15;;
36189;SDS011;22232;50.914;13.858;2022-08-04T07:20:41;6.15;;;3.17;;
36189;SDS011;22232;50.914;13.858;2022-08-04T07:23:13;3.72;;;3.00;;
36189;SDS011;22232;50.914;13.858;2022-08-04T07:26:03;5.80;;;2.80;;
36189;SDS011;22232;50.914;13.858;2022-08-04T07:28:39;5.87;;;3.37;;
36189;SDS011;22232;50.914;13.858;2022-08-04T07:31:13;4.28;;;2.70;;
36189;SDS011;22232;50.914;13.858;2022-08-04T07:34:02;5.10;;;2.60;;
36189;SDS011;22232;50.914;13.858;2022-08-04T07:36:46;5.25;;;2.40;;
36189;SDS011;22232;50.914;13.858;2022-08-04T07:39:19;3.03;;;2.45;;
36189;SDS011;22232;50.914;13.858;2022-08-04T07:41:55;5.47;;;3.10;;
36189;SDS011;22232;50.914;13.858;2022-08-04T07:44:24;4.53;;;2.92;;
36189;SDS011;22232;50.914;13.858;2022-08-04T07:46:53;11.02;;;3.00;;
36189;SDS011;22232;50.914;13.858;2022-08-04T07:49:21;5.70;;;2.65;;
36189;SDS011;22232;50.914;13.858;2022-08-04T07:52:10;5.55;;;3.25;;
36189;SDS011;22232;50.914;13.858;2022-08-04T07:54:38;5.55;;;2.90;;
36189;SDS011;22232;50.914;13.858;2022-08-04T07:57:07;5.50;;;2.85;;
36189;SDS011;22232;50.914;13.858;2022-08-04T07:59:46;4.70;;;2.85;;
36189;SDS011;22232;50.914;13.858;2022-08-04T08:02:17;5.07;;;2.60;;
36189;SDS011;22232;50.914;13.858;2022-08-04T08:04:47;3.38;;;2.63;;
36189;SDS011;22232;50.914;13.858;2022-08-04T08:07:17;4.18;;;2.05;;
36189;SDS011;22232;50.914;13.858;2022-08-04T08:09:46;2.20;;;1.92;;
36189;SDS011;22232;50.914;13.858;2022-08-04T08:12:14;3.53;;;2.25;;
36189;SDS011;22232;50.914;13.858;2022-08-04T08:15:02;2.00;;;1.85;;
36189;SDS011;22232;50.914;13.858;2022-08-04T08:17:34;2.92;;;1.98;;
36189;SDS011;22232;50.914;13.858;2022-08-04T08:20:22;3.00;;;2.25;;
36189;SDS011;22232;50.914;13.858;2022-08-04T08:22:56;3.03;;;1.85;;
36189;SDS011;22232;50.914;13.858;2022-08-04T08:25:24;6.82;;;2.03;;
36189;SDS011;22232;50.914;13.858;2022-08-04T08:27:52;3.38;;;2.10;;
36189;SDS011;22232;50.914;13.858;2022-08-04T08:30:23;3.92;;;2.20;;
36189;SDS011;22232;50.914;13.858;2022-08-04T08:33:02;2.33;;;2.08;;
36189;SDS011;22232;50.914;13.858;2022-08-04T08:36:22;2.47;;;1.98;;
36189;SDS011;22232;50.914;13.858;2022-08-04T08:38:42;3.20;;;2.35;;
36189;SDS011;22232;50.914;13.858;2022-08-04T08:41:22;2.97;;;1.90;;
36189;SDS011;22232;50.914;13.858;2022-08-04T09:07:05;3.67;;;2.20;;
36189;SDS011;22232;50.914;13.858;2022-08-04T09:09:52;2.55;;;1.70;;
36189;SDS011;22232;50.914;13.858;2022-08-04T09:12:34;2.40;;;2.00;;
36189;SDS011;22232;50.914;13.858;2022-08-04T09:15:56;8.77;;;2.10;;
36189;SDS011;22232;50.914;13.858;2022-08-04T09:24:13;5.90;;;1.83;;
36189;SDS011;22232;50.914;13.858;2022-08-04T09:27:12;3.83;;;1.98;;
36189;SDS011;22232;50.914;13.858;2022-08-04T09:30:00;11.57;;;2.20;;
36189;SDS011;22232;50.914;13.858;2022-08-04T09:38:21;3.17;;;1.88;;
36189;SDS011;22232;50.914;13.858;2022-08-04T09:56:29;3.90;;;2.20;;
36189;SDS011;22232;50.914;13.858;2022-08-04T10:02:04;7.40;;;2.65;;
36189;SDS011;22232;50.914;13.858;2022-08-04T10:04:35;2.65;;;1.67;;
36189;SDS011;22232;50.914;13.858;2022-08-04T10:10:35;2.67;;;1.90;;
36189;SDS011;22232;50.914;13.858;2022-08-04T10:16:16;10.10;;;2.30;;
36189;SDS011;22232;50.914;13.858;2022-08-04T10:27:10;9.35;;;2.70;;
36189;SDS011;22232;50.914;13.858;2022-08-04T10:29:44;2.95;;;2.28;;
36189;SDS011;22232;50.914;13.858;2022-08-04T10:34:58;2.20;;;2.10;;
36189;SDS011;22232;50.914;13.858;2022-08-04T10:41:08;2.85;;;2.20;;
36189;SDS011;22232;50.914;13.858;2022-08-04T10:46:36;2.33;;;2.13;;
36189;SDS011;22232;50.914;13.858;2022-08-04T10:52:23;7.63;;;2.38;;
36189;SDS011;22232;50.914;13.858;2022-08-04T10:57:49;3.10;;;2.40;;
36189;SDS011;22232;50.914;13.858;2022-08-04T11:00:23;2.45;;;2.00;;
36189;SDS011;22232;50.914;13.858;2022-08-04T11:10:07;3.63;;;2.15;;
36189;SDS011;22232;50.914;13.858;2022-08-04T11:12:35;2.60;;;2.40;;
36189;SDS011;22232;50.914;13.858;2022-08-04T11:15:10;3.92;;;2.28;;
36189;SDS011;22232;50.914;13.858;2022-08-04T11:17:58;3.53;;;1.98;;
36189;SDS011;22232;50.914;13.858;2022-08-04T11:21:27;4.70;;;2.42;;
36189;SDS011;22232;50.914;13.858;2022-08-04T11:23:36;2.38;;;2.00;;
36189;SDS011;22232;50.914;13.858;2022-08-04T11:26:11;2.67;;;2.47;;
36189;SDS011;22232;50.914;13.858;2022-08-04T11:28:50;13.77;;;2.30;;
36189;SDS011;22232;50.914;13.858;2022-08-04T11:31:31;3.00;;;2.58;;
36189;SDS011;22232;50.914;13.858;2022-08-04T11:36:43;5.15;;;2.67;;
36189;SDS011;22232;50.914;13.858;2022-08-04T11:39:37;3.80;;;2.25;;
36189;SDS011;22232;50.914;13.858;2022-08-04T11:42:17;3.50;;;2.38;;
36189;SDS011;22232;50.914;13.858;2022-08-04T11:44:50;2.78;;;2.50;;
36189;SDS011;22232;50.914;13.858;2022-08-04T11:49:55;3.10;;;2.30;;
36189;SDS011;22232;50.914;13.858;2022-08-04T11:52:29;3.08;;;2.47;;
36189;SDS011;22232;50.914;13.858;2022-08-04T11:55:02;2.70;;;2.35;;
36189;SDS011;22232;50.914;13.858;2022-08-04T11:57:33;4.28;;;2.60;;
36189;SDS011;22232;50.914;13.858;2022-08-04T12:00:04;4.97;;;2.72;;
36189;SDS011;22232;50.914;13.858;2022-08-04T12:06:06;2.27;;;2.07;;
36189;SDS011;22232;50.914;13.858;2022-08-04T12:14:29;3.15;;;2.50;;
36189;SDS011;22232;50.914;13.858;2022-08-04T12:17:07;4.43;;;2.78;;
36189;SDS011;22232;50.914;13.858;2022-08-04T12:19:44;18.35;;;3.45;;
36189;SDS011;22232;50.914;13.858;2022-08-04T12:22:52;6.47;;;3.08;;
36189;SDS011;22232;50.914;13.858;2022-08-04T12:25:29;3.60;;;2.50;;
36189;SDS011;22232;50.914;13.858;2022-08-04T12:28:05;3.85;;;2.33;;
36189;SDS011;22232;50.914;13.858;2022-08-04T12:30:39;4.72;;;2.60;;
36189;SDS011;22232;50.914;13.858;2022-08-04T12:33:39;3.20;;;2.55;;
36189;SDS011;22232;50.914;13.858;2022-08-04T12:36:34;3.88;;;3.00;;
36189;SDS011;22232;50.914;13.858;2022-08-04T12:39:10;5.85;;;2.83;;
36189;SDS011;22232;50.914;13.858;2022-08-04T12:44:35;4.72;;;2.67;;
36189;SDS011;22232;50.914;13.858;2022-08-04T12:47:07;6.85;;;2.67;;
36189;SDS011;22232;50.914;13.858;2022-08-04T12:49:54;4.95;;;3.00;;
36189;SDS011;22232;50.914;13.858;2022-08-04T12:52:29;5.35;;;2.42;;
36189;SDS011;22232;50.914;13.858;2022-08-04T12:55:20;6.10;;;2.30;;
36189;SDS011;22232;50.914;13.858;2022-08-04T12:57:51;3.95;;;2.58;;
36189;SDS011;22232;50.914;13.858;2022-08-04T13:00:41;4.53;;;2.92;;
36189;SDS011;22232;50.914;13.858;2022-08-04T13:03:10;3.20;;;2.90;;
36189;SDS011;22232;50.914;13.858;2022-08-04T13:05:40;3.08;;;2.42;;
36189;SDS011;22232;50.914;13.858;2022-08-04T13:08:09;10.05;;;3.10;;
36189;SDS011;22232;50.914;13.858;2022-08-04T13:10:39;6.50;;;2.78;;
36189;SDS011;22232;50.914;13.858;2022-08-04T13:13:14;4.80;;;2.53;;
36189;SDS011;22232;50.914;13.858;2022-08-04T13:15:57;2.95;;;2.50;;
36189;SDS011;22232;50.914;13.858;2022-08-04T13:18:30;4.20;;;2.85;;
36189;SDS011;22232;50.914;13.858;2022-08-04T13:21:14;5.35;;;2.67;;
36189;SDS011;22232;50.914;13.858;2022-08-04T13:23:50;6.43;;;2.60;;
36189;SDS011;22232;50.914;13.858;2022-08-04T13:26:50;4.97;;;2.70;;
36189;SDS011;22232;50.914;13.858;2022-08-04T13:29:23;5.13;;;2.78;;
36189;SDS011;22232;50.914;13.858;2022-08-04T13:32:21;6.40;;;2.88;;
36189;SDS011;22232;50.914;13.858;2022-08-04T13:34:51;4.30;;;3.08;;
36189;SDS011;22232;50.914;13.858;2022-08-04T13:37:23;5.30;;;2.55;;
36189;SDS011;22232;50.914;13.858;2022-08-04T13:39:53;2.85;;;2.63;;
36189;SDS011;22232;50.914;13.858;2022-08-04T13:42:24;5.55;;;2.83;;
36189;SDS011;22232;50.914;13.858;2022-08-04T13:44:55;6.15;;;2.80;;
36189;SDS011;22232;50.914;13.858;2022-08-04T13:47:28;4.40;;;2.85;;
36189;SDS011;22232;50.914;13.858;2022-08-04T13:52:38;4.72;;;2.72;;
36189;SDS011;22232;50.914;13.858;2022-08-04T13:55:16;3.90;;;2.78;;
36189;SDS011;22232;50.914;13.858;2022-08-04T13:57:48;5.00;;;3.08;;
36189;SDS011;22232;50.914;13.858;2022-08-04T14:00:19;7.70;;;2.85;;
36189;SDS011;22232;50.914;13.858;2022-08-04T14:03:05;3.17;;;2.70;;
36189;SDS011;22232;50.914;13.858;2022-08-04T14:11:15;2.63;;;2.42;;
36189;SDS011;22232;50.914;13.858;2022-08-04T14:17:00;2.90;;;2.70;;
36189;SDS011;22232;50.914;13.858;2022-08-04T14:19:28;5.80;;;2.72;;
36189;SDS011;22232;50.914;13.858;2022-08-04T14:25:02;3.07;;;2.20;;
36189;SDS011;22232;50.914;13.858;2022-08-04T14:30:30;4.38;;;2.75;;
36189;SDS011;22232;50.914;13.858;2022-08-04T14:33:09;2.78;;;2.50;;
36189;SDS011;22232;50.914;13.858;2022-08-04T14:35:58;2.88;;;2.38;;
36189;SDS011;22232;50.914;13.858;2022-08-04T14:38:40;2.58;;;2.40;;
36189;SDS011;22232;50.914;13.858;2022-08-04T14:41:10;3.22;;;2.33;;
36189;SDS011;22232;50.914;13.858;2022-08-04T14:43:51;4.57;;;2.50;;
36189;SDS011;22232;50.914;13.858;2022-08-04T14:46:24;3.00;;;2.40;;
36189;SDS011;22232;50.914;13.858;2022-08-04T14:49:08;5.43;;;2.55;;
36189;SDS011;22232;50.914;13.858;2022-08-04T14:51:39;3.00;;;2.42;;
36189;SDS011;22232;50.914;13.858;2022-08-04T14:56:51;3.97;;;2.50;;
36189;SDS011;22232;50.914;13.858;2022-08-04T14:59:21;4.57;;;2.53;;
36189;SDS011;22232;50.914;13.858;2022-08-04T15:01:51;3.00;;;2.28;;
36189;SDS011;22232;50.914;13.858;2022-08-04T15:04:27;3.95;;;2.65;;
36189;SDS011;22232;50.914;13.858;2022-08-04T15:06:58;2.42;;;2.25;;
36189;SDS011;22232;50.914;13.858;2022-08-04T15:09:31;3.13;;;2.42;;
36189;SDS011;22232;50.914;13.858;2022-08-04T15:12:02;3.35;;;2.67;;
36189;SDS011;22232;50.914;13.858;2022-08-04T15:14:31;3.78;;;2.22;;
36189;SDS011;22232;50.914;13.858;2022-08-04T15:17:04;3.03;;;2.47;;
36189;SDS011;22232;50.914;13.858;2022-08-04T15:19:53;4.20;;;2.67;;
36189;SDS011;22232;50.914;13.858;2022-08-04T15:22:22;12.85;;;3.05;;
36189;SDS011;22232;50.914;13.858;2022-08-04T15:24:50;2.90;;;2.60;;
36189;SDS011;22232;50.914;13.858;2022-08-04T15:27:23;4.10;;;2.30;;
36189;SDS011;22232;50.914;13.858;2022-08-04T15:29:54;3.42;;;3.05;;
36189;SDS011;22232;50.914;13.858;2022-08-04T15:32:32;2.60;;;2.40;;
36189;SDS011;22232;50.914;13.858;2022-08-04T15:35:04;5.53;;;2.60;;
36189;SDS011;22232;50.914;13.858;2022-08-04T15:37:43;3.40;;;2.67;;
36189;SDS011;22232;50.914;13.858;2022-08-04T15:45:49;2.42;;;2.13;;
36189;SDS011;22232;50.914;13.858;2022-08-04T15:48:39;2.67;;;2.47;;
36189;SDS011;22232;50.914;13.858;2022-08-04T15:51:10;4.40;;;2.50;;
36189;SDS011;22232;50.914;13.858;2022-08-04T15:58:56;2.65;;;2.45;;
36189;SDS011;22232;50.914;13.858;2022-08-04T16:01:23;5.13;;;2.60;;
36189;SDS011;22232;50.914;13.858;2022-08-04T16:03:54;2.67;;;2.47;;
36189;SDS011;22232;50.914;13.858;2022-08-04T16:08:57;4.18;;;2.40;;
36189;SDS011;22232;50.914;13.858;2022-08-04T16:19:10;4.05;;;2.53;;
36189;SDS011;22232;50.914;13.858;2022-08-04T16:24:17;5.15;;;2.83;;
36189;SDS011;22232;50.914;13.858;2022-08-04T16:26:57;8.73;;;3.05;;
36189;SDS011;22232;50.914;13.858;2022-08-04T16:29:27;3.42;;;2.40;;
36189;SDS011;22232;50.914;13.858;2022-08-04T16:34:35;2.60;;;2.40;;
36189;SDS011;22232;50.914;13.858;2022-08-04T16:37:23;9.18;;;2.80;;
36189;SDS011;22232;50.914;13.858;2022-08-04T16:43:06;2.95;;;2.60;;
36189;SDS011;22232;50.914;13.858;2022-08-04T16:48:07;8.60;;;2.90;;
36189;SDS011;22232;50.914;13.858;2022-08-04T16:50:50;3.50;;;2.33;;
36189;SDS011;22232;50.914;13.858;2022-08-04T16:53:33;5.82;;;2.67;;
36189;SDS011;22232;50.914;13.858;2022-08-04T16:56:30;5.28;;;2.80;;
36189;SDS011;22232;50.914;13.858;2022-08-04T16:59:10;2.60;;;2.25;;
36189;SDS011;22232;50.914;13.858;2022-08-04T17:01:46;3.30;;;2.55;;
36189;SDS011;22232;50.914;13.858;2022-08-04T17:04:16;2.85;;;2.20;;
36189;SDS011;22232;50.914;13.858;2022-08-04T17:06:44;5.07;;;2.67;;
36189;SDS011;22232;50.914;13.858;2022-08-04T17:09:16;3.30;;;2.45;;
36189;SDS011;22232;50.914;13.858;2022-08-04T17:11:45;4.20;;;2.50;;
36189;SDS011;22232;50.914;13.858;2022-08-04T17:14:19;6.18;;;2.65;;
36189;SDS011;22232;50.914;13.858;2022-08-04T17:16:52;3.00;;;2.55;;
36189;SDS011;22232;50.914;13.858;2022-08-04T17:19:22;5.28;;;2.40;;
36189;SDS011;22232;50.914;13.858;2022-08-04T17:21:59;2.67;;;2.47;;
36189;SDS011;22232;50.914;13.858;2022-08-04T17:24:33;4.60;;;2.13;;
36189;SDS011;22232;50.914;13.858;2022-08-04T17:27:01;2.58;;;2.05;;
36189;SDS011;22232;50.914;13.858;2022-08-04T17:29:49;4.13;;;2.42;;
36189;SDS011;22232;50.914;13.858;2022-08-04T17:32:18;4.40;;;2.10;;
36189;SDS011;22232;50.914;13.858;2022-08-04T17:34:49;2.85;;;2.50;;
36189;SDS011;22232;50.914;13.858;2022-08-04T17:37:18;2.72;;;2.50;;
36189;SDS011;22232;50.914;13.858;2022-08-04T17:40:08;7.30;;;2.90;;
36189;SDS011;22232;50.914;13.858;2022-08-04T17:42:39;6.68;;;2.33;;
36189;SDS011;22232;50.914;13.858;2022-08-04T17:45:12;3.00;;;2.05;;
36189;SDS011;22232;50.914;13.858;2022-08-04T17:48:05;3.28;;;1.95;;
36189;SDS011;22232;50.914;13.858;2022-08-04T17:50:35;2.50;;;2.30;;
36189;SDS011;22232;50.914;13.858;2022-08-04T17:53:09;3.13;;;2.13;;
36189;SDS011;22232;50.914;13.858;2022-08-04T17:55:45;4.95;;;2.15;;
36189;SDS011;22232;50.914;13.858;2022-08-04T17:58:16;4.22;;;2.38;;
36189;SDS011;22232;50.914;13.858;2022-08-04T18:00:56;3.13;;;2.00;;
36189;SDS011;22232;50.914;13.858;2022-08-04T18:03:45;2.65;;;2.00;;
36189;SDS011;22232;50.914;13.858;2022-08-04T18:06:20;3.00;;;2.20;;
36189;SDS011;22232;50.914;13.858;2022-08-04T18:08:52;5.18;;;2.15;;
36189;SDS011;22232;50.914;13.858;2022-08-04T18:11:50;2.58;;;2.10;;
36189;SDS011;22232;50.914;13.858;2022-08-04T18:14:25;3.13;;;2.20;;
36189;SDS011;22232;50.914;13.858;2022-08-04T18:16:55;3.95;;;2.28;;
36189;SDS011;22232;50.914;13.858;2022-08-04T18:19:22;5.60;;;2.13;;
36189;SDS011;22232;50.914;13.858;2022-08-04T18:21:50;4.18;;;2.20;;
36189;SDS011;22232;50.914;13.858;2022-08-04T18:24:27;6.10;;;2.38;;
36189;SDS011;22232;50.914;13.858;2022-08-04T18:27:17;3.85;;;2.00;;
36189;SDS011;22232;50.914;13.858;2022-08-04T18:29:46;4.22;;;2.20;;
36189;SDS011;22232;50.914;13.858;2022-08-04T18:32:33;3.45;;;2.20;;
36189;SDS011;22232;50.914;13.858;2022-08-04T18:35:02;2.75;;;2.15;;
36189;SDS011;22232;50.914;13.858;2022-08-04T18:37:31;2.38;;;2.17;;
36189;SDS011;22232;50.914;13.858;2022-08-04T18:40:19;2.42;;;2.10;;
36189;SDS011;22232;50.914;13.858;2022-08-04T18:43:01;2.78;;;2.30;;
36189;SDS011;22232;50.914;13.858;2022-08-04T18:45:30;4.72;;;2.10;;
36189;SDS011;22232;50.914;13.858;2022-08-04T18:48:01;2.70;;;2.30;;
36189;SDS011;22232;50.914;13.858;2022-08-04T18:50:40;2.38;;;2.08;;
36189;SDS011;22232;50.914;13.858;2022-08-04T18:53:28;4.10;;;2.40;;
36189;SDS011;22232;50.914;13.858;2022-08-04T18:56:02;3.03;;;2.15;;
36189;SDS011;22232;50.914;13.858;2022-08-04T18:58:45;2.58;;;2.38;;
36189;SDS011;22232;50.914;13.858;2022-08-04T19:01:14;3.72;;;2.10;;
36189;SDS011;22232;50.914;13.858;2022-08-04T19:03:42;3.25;;;2.40;;
36189;SDS011;22232;50.914;13.858;2022-08-04T19:06:12;3.05;;;1.98;;
36189;SDS011;22232;50.914;13.858;2022-08-04T19:08:41;3.03;;;2.13;;
36189;SDS011;22232;50.914;13.858;2022-08-04T19:11:11;4.50;;;2.20;;
36189;SDS011;22232;50.914;13.858;2022-08-04T19:14:00;4.40;;;2.03;;
36189;SDS011;22232;50.914;13.858;2022-08-04T19:16:30;2.47;;;1.80;;
36189;SDS011;22232;50.914;13.858;2022-08-04T19:18:59;7.88;;;2.47;;
36189;SDS011;22232;50.914;13.858;2022-08-04T19:21:32;3.67;;;2.08;;
36189;SDS011;22232;50.914;13.858;2022-08-04T19:24:20;2.25;;;1.88;;
36189;SDS011;22232;50.914;13.858;2022-08-04T19:27:00;5.03;;;2.28;;
36189;SDS011;22232;50.914;13.858;2022-08-04T19:29:37;3.28;;;2.25;;
36189;SDS011;22232;50.914;13.858;2022-08-04T19:32:10;5.07;;;2.08;;
36189;SDS011;22232;50.914;13.858;2022-08-04T19:34:44;3.08;;;2.60;;
36189;SDS011;22232;50.914;13.858;2022-08-04T19:37:14;5.45;;;2.28;;
36189;SDS011;22232;50.914;13.858;2022-08-04T19:40:04;6.13;;;2.83;;
36189;SDS011;22232;50.914;13.858;2022-08-04T19:42:35;3.53;;;2.50;;
36189;SDS011;22232;50.914;13.858;2022-08-04T19:45:03;7.43;;;2.50;;
36189;SDS011;22232;50.914;13.858;2022-08-04T19:47:32;3.70;;;2.42;;
36189;SDS011;22232;50.914;13.858;2022-08-04T19:50:19;2.67;;;2.42;;
36189;SDS011;22232;50.914;13.858;2022-08-04T19:52:50;7.30;;;2.33;;
36189;SDS011;22232;50.914;13.858;2022-08-04T19:55:19;3.67;;;2.20;;
36189;SDS011;22232;50.914;13.858;2022-08-04T19:58:04;3.35;;;2.58;;
36189;SDS011;22232;50.914;13.858;2022-08-04T20:00:35;5.70;;;2.42;;
36189;SDS011;22232;50.914;13.858;2022-08-04T20:03:04;2.58;;;2.13;;
36189;SDS011;22232;50.914;13.858;2022-08-04T20:05:39;3.38;;;2.35;;
36189;SDS011;22232;50.914;13.858;2022-08-04T20:08:22;3.78;;;2.33;;
36189;SDS011;22232;50.914;13.858;2022-08-04T20:10:54;3.25;;;2.30;;
36189;SDS011;22232;50.914;13.858;2022-08-04T20:13:23;2.50;;;2.30;;
36189;SDS011;22232;50.914;13.858;2022-08-04T20:16:07;3.25;;;2.28;;
36189;SDS011;22232;50.914;13.858;2022-08-04T20:18:54;3.15;;;2.35;;
36189;SDS011;22232;50.914;13.858;2022-08-04T20:21:32;4.20;;;2.60;;
36189;SDS011;22232;50.914;13.858;2022-08-04T20:24:20;2.58;;;2.25;;
36189;SDS011;22232;50.914;13.858;2022-08-04T20:27:12;3.33;;;2.47;;
36189;SDS011;22232;50.914;13.858;2022-08-04T20:29:43;4.88;;;2.50;;
36189;SDS011;22232;50.914;13.858;2022-08-04T20:32:16;3.70;;;2.45;;
36189;SDS011;22232;50.914;13.858;2022-08-04T20:34:46;4.50;;;2.40;;
36189;SDS011;22232;50.914;13.858;2022-08-04T20:37:14;5.35;;;2.80;;